Time;durP1;ratioP1;P1;durP2;ratioP2;P2;SDS_P1;SDS_P2;PMS_P1;PMS_P2;Temp;Humidity;BMP_temperature;BMP_pressure;BME280_temperature;BME280_humidity;BME280_pressure;Samples;Min_cycle;Max_cycle;Signal;HPM_P1;HPM_P2
2021/11/03 00:02:05;;;;;;;18.92;10.05;;;;;;;4.55;100.00;61451.31;5068710;28;20056;-72
2021/11/03 00:04:35;;;;;;;14.77;7.65;;;;;;;4.57;100.00;61454.03;5056818;28;20154;-72
2021/11/03 00:07:03;;;;;;;17.85;8.82;;;;;;;4.59;100.00;61456.16;5078992;28;20050;-72
2021/11/03 00:09:31;;;;;;;14.60;8.60;;;;;;;4.62;100.00;61458.88;5092845;28;20052;-72
2021/11/03 00:11:58;;;;;;;22.67;11.75;;;;;;;4.63;100.00;61459.97;5076642;28;20047;-73
2021/11/03 00:14:26;;;;;;;25.17;13.25;;;;;;;4.62;100.00;61459.31;5079758;28;20063;-72
2021/11/03 00:16:53;;;;;;;23.67;10.95;;;;;;;4.61;100.00;61457.94;5099582;28;20139;-72
2021/11/03 00:19:21;;;;;;;17.40;8.25;;;;;;;4.59;100.00;61456.38;5077398;28;20051;-72
2021/11/03 00:21:48;;;;;;;17.55;8.63;;;;;;;4.58;100.00;61454.72;5098909;28;20565;-72
2021/11/03 00:24:16;;;;;;;9.15;5.30;;;;;;;4.58;100.00;61455.09;5095188;28;20478;-70
2021/11/03 00:26:43;;;;;;;20.92;9.00;;;;;;;4.57;100.00;61453.91;5099268;28;20087;-71
2021/11/03 00:29:10;;;;;;;18.98;8.27;;;;;;;4.55;100.00;61451.91;5075295;28;20142;-71
2021/11/03 00:31:38;;;;;;;14.13;7.45;;;;;;;4.53;100.00;61449.72;5093153;28;20470;-71
2021/11/03 00:34:05;;;;;;;15.15;7.38;;;;;;;4.51;100.00;61448.84;5071525;28;20232;-71
2021/11/03 00:36:33;;;;;;;11.48;5.95;;;;;;;4.49;100.00;61446.38;5091846;28;20139;-71
2021/11/03 00:39:01;;;;;;;15.18;7.15;;;;;;;4.47;100.00;61444.66;5093123;28;20079;-70
2021/11/03 00:41:28;;;;;;;14.07;6.72;;;;;;;4.45;100.00;61442.63;5094015;28;20058;-71
2021/11/03 00:43:55;;;;;;;12.30;6.03;;;;;;;4.44;100.00;61441.69;5094169;28;20535;-71
2021/11/03 00:46:23;;;;;;;11.55;5.80;;;;;;;4.44;100.00;61440.88;5093906;28;20570;-72
2021/11/03 00:48:51;;;;;;;11.27;4.88;;;;;;;4.44;100.00;61440.88;5093690;28;20046;-71
2021/11/03 00:51:19;;;;;;;8.00;3.88;;;;;;;4.45;100.00;61441.81;5083821;28;20361;-71
2021/11/03 00:53:50;;;;;;;8.27;3.75;;;;;;;4.45;100.00;61442.47;5092201;28;20123;-71
2021/11/03 00:56:17;;;;;;;10.48;4.10;;;;;;;4.46;100.00;61443.44;5091786;28;20122;-72
2021/11/03 00:58:45;;;;;;;5.43;3.03;;;;;;;4.47;100.00;61445.13;5097276;28;20071;-71
2021/11/03 01:01:12;;;;;;;8.05;3.72;;;;;;;4.50;100.00;61447.09;5093758;28;20088;-72
2021/11/03 01:03:39;;;;;;;4.43;2.42;;;;;;;4.53;100.00;61450.09;5088743;28;20048;-71
2021/11/03 01:06:07;;;;;;;5.30;2.80;;;;;;;4.55;100.00;61452.69;5078131;28;20047;-71
2021/11/03 01:08:35;;;;;;;6.55;2.80;;;;;;;4.57;100.00;61454.88;5097773;28;20036;-71
2021/11/03 01:11:03;;;;;;;6.70;1.98;;;;;;;4.60;100.00;61457.53;5095407;28;20481;-71
2021/11/03 01:13:49;;;;;;;7.00;2.25;;;;;;;4.61;100.00;61458.78;5086965;28;20407;-71
2021/11/03 01:16:16;;;;;;;3.63;1.98;;;;;;;4.61;100.00;61459.94;5092801;28;20047;-70
2021/11/03 01:18:43;;;;;;;3.50;1.90;;;;;;;4.63;100.00;61461.00;5070187;28;20055;-71
2021/11/03 01:21:11;;;;;;;6.05;1.70;;;;;;;4.64;100.00;61462.44;5091749;28;20098;-71
2021/11/03 01:23:38;;;;;;;6.32;2.22;;;;;;;4.66;100.00;61464.63;5078580;28;20090;-70
2021/11/03 01:26:05;;;;;;;4.75;1.77;;;;;;;4.69;100.00;61467.22;5091239;28;20133;-71
2021/11/03 01:28:33;;;;;;;3.45;1.50;;;;;;;4.72;100.00;61470.88;5086835;28;20044;-71
2021/11/03 01:31:01;;;;;;;4.90;2.03;;;;;;;4.77;100.00;61476.03;5085565;28;20071;-71
2021/11/03 01:33:28;;;;;;;3.88;1.60;;;;;;;4.81;100.00;61479.94;5064743;28;20462;-71
2021/11/03 01:35:56;;;;;;;4.70;1.73;;;;;;;4.84;100.00;61483.81;5096226;28;20074;-71
2021/11/03 01:38:23;;;;;;;4.05;2.10;;;;;;;4.87;100.00;61486.75;5098025;28;20131;-71
2021/11/03 01:40:51;;;;;;;5.13;2.03;;;;;;;4.89;100.00;61488.50;5072308;28;20075;-71
2021/11/03 01:44:03;;;;;;;4.63;2.20;;;;;;;4.90;100.00;61489.88;5075765;28;20091;-71
2021/11/03 01:46:34;;;;;;;8.48;3.38;;;;;;;4.90;100.00;61489.72;4992362;28;20092;-71
2021/11/03 01:49:21;;;;;;;5.40;2.58;;;;;;;4.90;100.00;61489.63;5007195;28;20046;-71
2021/11/03 01:52:04;;;;;;;4.90;2.30;;;;;;;4.90;100.00;61489.63;5083113;28;20079;-71
2021/11/03 01:54:32;;;;;;;;;;;;;;;4.90;100.00;61489.63;5088386;28;20068;-72
2021/11/03 01:57:03;;;;;;;6.05;2.03;;;;;;;4.90;100.00;61489.63;5072343;28;19947;-71
2021/11/03 01:59:37;;;;;;;4.28;1.77;;;;;;;4.91;100.00;61490.13;5054518;28;20083;-71
2021/11/03 02:02:06;;;;;;;3.80;1.30;;;;;;;4.92;100.00;61491.47;5071407;28;20119;-71
2021/11/03 02:04:35;;;;;;;4.60;1.15;;;;;;;4.94;100.00;61493.38;5074184;28;20134;-71
2021/11/03 02:07:08;;;;;;;8.18;1.55;;;;;;;4.96;100.00;61495.56;5108313;28;20047;-71
2021/11/03 02:09:35;;;;;;;3.15;1.20;;;;;;;4.98;100.00;61497.91;5073454;28;20139;-71
2021/11/03 02:12:03;;;;;;;5.55;1.25;;;;;;;5.00;100.00;61500.25;5099666;28;20328;-71
2021/11/03 02:14:31;;;;;;;2.92;1.50;;;;;;;5.02;100.00;61502.53;5071158;28;20048;-72
2021/11/03 02:16:58;;;;;;;2.55;1.20;;;;;;;5.04;100.00;61504.13;5073441;28;20474;-71
2021/11/03 02:19:30;;;;;;;4.35;1.98;;;;;;;5.05;100.00;61504.94;5080548;28;20076;-70
2021/11/03 02:22:07;;;;;;;6.55;2.17;;;;;;;5.06;100.00;61506.25;5092110;28;20127;-71
2021/11/03 02:24:45;;;;;;;4.43;2.03;;;;;;;5.07;100.00;61507.16;5079589;28;20071;-71
2021/11/03 02:27:13;;;;;;;3.80;1.65;;;;;;;5.08;100.00;61507.94;5079387;28;20116;-71
2021/11/03 02:29:40;;;;;;;5.70;2.33;;;;;;;5.09;100.00;61509.03;5071426;28;20151;-71
2021/11/03 02:32:24;;;;;;;4.78;1.83;;;;;;;5.11;100.00;61511.25;5071853;28;20138;-70
2021/11/03 02:34:52;;;;;;;4.90;1.80;;;;;;;5.12;100.00;61512.75;5089604;28;20126;-71
2021/11/03 02:37:28;;;;;;;6.55;2.17;;;;;;;5.14;100.00;61514.50;5060929;28;20303;-71
2021/11/03 02:40:04;;;;;;;5.00;1.98;;;;;;;5.15;100.00;61515.44;5089106;28;20098;-72
2021/11/03 02:42:36;;;;;;;4.15;1.90;;;;;;;5.16;100.00;61516.53;5080280;28;20085;-71
2021/11/03 02:45:12;;;;;;;6.95;2.55;;;;;;;5.17;100.00;61517.78;5078199;28;20083;-72
2021/11/03 02:47:40;;;;;;;3.55;1.80;;;;;;;5.18;100.00;61518.88;5093825;28;20070;-71
2021/11/03 02:50:10;;;;;;;3.70;2.10;;;;;;;5.19;100.00;61519.63;5094721;28;20059;-71
2021/11/03 02:52:37;;;;;;;5.03;2.40;;;;;;;5.20;100.00;61520.56;5071096;28;20050;-71
2021/11/03 02:55:07;;;;;;;6.82;3.05;;;;;;;5.20;100.00;61520.41;5094805;28;20075;-71
2021/11/03 02:57:35;;;;;;;4.88;2.28;;;;;;;5.20;100.00;61520.72;5086499;28;20082;-71
2021/11/03 03:00:06;;;;;;;5.00;2.80;;;;;;;5.20;100.00;61520.91;5075955;28;20128;-71
2021/11/03 03:02:34;;;;;;;8.82;3.92;;;;;;;5.21;100.00;61521.22;5094971;28;20075;-72
2021/11/03 03:05:02;;;;;;;7.28;3.13;;;;;;;5.22;100.00;61522.31;5094477;28;20532;-71
2021/11/03 03:07:29;;;;;;;9.57;3.53;;;;;;;5.23;100.00;61522.69;5069550;28;20506;-71
2021/11/03 03:09:58;;;;;;;5.75;3.13;;;;;;;5.23;100.00;61523.66;5077299;28;20071;-71
2021/11/03 03:12:29;;;;;;;13.05;3.20;;;;;;;5.24;100.00;61524.47;5093537;28;20126;-71
2021/11/03 03:14:57;;;;;;;7.25;2.85;;;;;;;5.24;100.00;61524.63;5088791;28;20044;-71
2021/11/03 03:17:28;;;;;;;7.70;3.92;;;;;;;5.25;100.00;61525.47;5078025;28;20048;-71
2021/11/03 03:19:56;;;;;;;8.48;3.28;;;;;;;5.26;100.00;61527.28;5075490;28;20139;-71
2021/11/03 03:22:23;;;;;;;5.70;2.78;;;;;;;5.27;100.00;61528.56;5081891;28;20145;-71
2021/11/03 03:24:50;;;;;;;6.72;2.90;;;;;;;5.28;100.00;61529.47;5091967;28;20043;-71
2021/11/03 03:27:22;;;;;;;8.48;2.55;;;;;;;5.29;100.00;61530.91;5089161;28;20066;-71
2021/11/03 03:29:49;;;;;;;4.90;2.90;;;;;;;5.30;100.00;61531.97;5085352;28;20398;-71
2021/11/03 03:32:17;;;;;;;3.90;2.35;;;;;;;5.31;100.00;61533.22;5105301;28;20130;-72
2021/11/03 03:34:45;;;;;;;5.13;2.58;;;;;;;5.32;100.00;61534.19;5110063;28;20048;-71
2021/11/03 03:37:12;;;;;;;7.55;2.40;;;;;;;5.34;100.00;61535.84;5096223;28;20048;-72
2021/11/03 03:39:41;;;;;;;6.25;1.90;;;;;;;5.35;100.00;61537.56;5093013;28;20229;-71
2021/11/03 03:42:17;;;;;;;7.50;2.15;;;;;;;5.37;100.00;61539.31;5072988;28;20048;-72
2021/11/03 03:44:45;;;;;;;2.92;1.52;;;;;;;5.39;100.00;61540.97;5084947;28;20462;-71
2021/11/03 03:47:13;;;;;;;5.20;2.05;;;;;;;5.41;100.00;61543.53;5065086;28;20048;-72
2021/11/03 03:49:41;;;;;;;4.45;1.40;;;;;;;5.43;100.00;61545.09;5072464;28;20091;-71
2021/11/03 03:52:09;;;;;;;2.58;1.30;;;;;;;5.45;100.00;61547.56;5090749;28;20442;-72
2021/11/03 03:54:37;;;;;;;2.92;1.00;;;;;;;5.48;100.00;61550.00;5073594;28;20131;-71
2021/11/03 03:57:04;;;;;;;1.67;0.90;;;;;;;5.50;100.00;61552.63;5089528;28;20081;-71
2021/11/03 03:59:32;;;;;;;2.72;0.82;;;;;;;5.52;100.00;61554.53;5087966;28;20079;-71
2021/11/03 04:01:59;;;;;;;1.42;0.80;;;;;;;5.54;100.00;61556.94;5073628;28;20087;-71
2021/11/03 04:04:27;;;;;;;2.63;0.70;;;;;;;5.57;100.00;61559.38;5068323;28;20076;-71
2021/11/03 04:06:55;;;;;;;4.03;0.73;;;;;;;5.59;100.00;61561.56;5087363;28;20131;-71
2021/11/03 04:09:22;;;;;;;1.25;0.52;;;;;;;5.60;100.00;61563.06;5087495;28;20044;-72
2021/11/03 04:11:49;;;;;;;2.03;0.80;;;;;;;5.61;100.00;61564.16;5074379;28;20048;-72
2021/11/03 04:14:17;;;;;;;2.03;0.70;;;;;;;5.62;100.00;61565.25;5092677;28;20070;-72
2021/11/03 04:16:45;;;;;;;2.35;0.50;;;;;;;5.63;100.00;61566.06;5077103;28;20188;-72
2021/11/03 04:19:12;;;;;;;3.20;0.50;;;;;;;5.64;100.00;61567.16;5093194;28;20455;-72
2021/11/03 04:21:40;;;;;;;1.02;0.40;;;;;;;5.64;100.00;61567.41;5077398;28;20544;-72
2021/11/03 04:24:19;;;;;;;3.03;0.65;;;;;;;5.65;100.00;61567.97;5079462;28;20131;-72
2021/11/03 04:26:48;;;;;;;2.25;0.55;;;;;;;5.65;100.00;61568.06;5075283;28;20075;-71
2021/11/03 04:29:18;;;;;;;4.00;1.00;;;;;;;5.66;100.00;61569.06;5074406;28;20127;-72
2021/11/03 04:31:46;;;;;;;1.88;0.60;;;;;;;5.66;100.00;61569.75;5076121;28;20048;-71
2021/11/03 04:34:14;;;;;;;1.67;0.60;;;;;;;5.67;100.00;61570.72;5071790;28;20051;-72
2021/11/03 04:36:41;;;;;;;0.95;0.50;;;;;;;5.68;100.00;61571.84;5070208;28;20126;-71
2021/11/03 04:39:10;;;;;;;1.60;0.60;;;;;;;5.69;100.00;61572.44;5087882;28;20102;-72
2021/11/03 04:41:39;;;;;;;3.33;0.50;;;;;;;5.69;100.00;61572.28;5092278;28;20124;-71
2021/11/03 04:44:07;;;;;;;2.20;0.50;;;;;;;5.69;100.00;61571.97;5099337;28;20083;-72
2021/11/03 04:46:37;;;;;;;2.45;0.60;;;;;;;5.69;100.00;61572.13;5077740;28;20055;-71
2021/11/03 04:49:06;;;;;;;1.60;0.77;;;;;;;5.68;100.00;61571.31;5089488;28;20048;-71
2021/11/03 04:51:33;;;;;;;1.38;0.60;;;;;;;5.69;100.00;61571.72;5101787;28;20050;-71
2021/11/03 04:54:01;;;;;;;0.80;0.40;;;;;;;5.68;100.00;61570.59;5076594;28;20123;-71
2021/11/03 04:56:30;;;;;;;3.90;0.60;;;;;;;5.68;100.00;61570.44;5075455;28;20108;-71
2021/11/03 04:58:58;;;;;;;1.48;0.47;;;;;;;5.68;100.00;61570.25;5072206;28;20044;-71
2021/11/03 05:01:26;;;;;;;3.63;0.50;;;;;;;5.68;100.00;61570.97;5080564;28;20113;-71
2021/11/03 05:03:55;;;;;;;0.93;0.40;;;;;;;5.69;100.00;61571.91;5068202;28;20139;-70
2021/11/03 05:06:24;;;;;;;1.13;0.50;;;;;;;5.70;100.00;61572.84;5064813;28;20091;-71
2021/11/03 05:08:53;;;;;;;4.35;0.43;;;;;;;5.71;100.00;61573.34;5073733;28;20052;-70
2021/11/03 05:11:21;;;;;;;1.85;0.65;;;;;;;5.71;100.00;61572.91;5087466;28;20135;-73
2021/11/03 05:13:48;;;;;;;1.83;0.40;;;;;;;5.72;100.00;61573.56;5095151;28;20093;-72
2021/11/03 05:16:19;;;;;;;2.47;0.50;;;;;;;5.73;100.00;61574.50;5099446;28;20247;-73
2021/11/03 05:18:46;;;;;;;2.13;0.40;;;;;;;5.73;100.00;61574.88;5073751;28;20047;-72
2021/11/03 05:21:14;;;;;;;4.28;0.50;;;;;;;5.73;100.00;61574.66;5087958;28;20090;-72
2021/11/03 05:23:41;;;;;;;3.92;0.40;;;;;;;5.72;100.00;61574.25;5089864;28;20508;-72
2021/11/03 05:26:10;;;;;;;0.57;0.40;;;;;;;5.72;100.00;61574.03;5090031;28;20134;-72
2021/11/03 05:28:39;;;;;;;3.50;0.60;;;;;;;5.72;100.00;61574.16;5092655;28;20505;-71
2021/11/03 05:31:06;;;;;;;1.95;0.50;;;;;;;5.72;100.00;61574.25;5090868;28;20090;-72
2021/11/03 05:33:34;;;;;;;0.93;0.63;;;;;;;5.72;100.00;61574.09;5088405;28;20559;-72
2021/11/03 05:36:02;;;;;;;0.52;0.30;;;;;;;5.72;100.00;61573.81;5072611;28;20366;-73
2021/11/03 05:38:29;;;;;;;1.92;0.60;;;;;;;5.71;100.00;61572.16;5070498;28;20060;-72
2021/11/03 05:40:56;;;;;;;5.45;1.00;;;;;;;5.69;100.00;61570.69;5070942;28;20549;-72
2021/11/03 05:43:24;;;;;;;1.83;0.65;;;;;;;5.69;100.00;61570.41;5071922;28;20135;-72
2021/11/03 05:45:51;;;;;;;1.67;0.68;;;;;;;5.69;100.00;61570.69;5087728;28;20063;-72
2021/11/03 05:48:20;;;;;;;2.75;0.40;;;;;;;5.69;100.00;61570.41;5044897;28;20045;-72
2021/11/03 05:50:48;;;;;;;1.38;0.50;;;;;;;5.69;100.00;61570.31;5057856;28;20441;-72
2021/11/03 05:53:15;;;;;;;1.55;0.50;;;;;;;5.69;100.00;61571.00;5086800;28;20140;-72
2021/11/03 05:55:43;;;;;;;1.50;0.50;;;;;;;5.69;100.00;61571.31;5087409;28;20047;-72
2021/11/03 05:58:11;;;;;;;2.05;0.60;;;;;;;5.69;100.00;61571.59;5071589;28;20079;-72
2021/11/03 06:00:39;;;;;;;2.00;0.52;;;;;;;5.69;100.00;61571.75;5056312;28;20139;-72
2021/11/03 06:03:06;;;;;;;2.42;0.55;;;;;;;5.69;100.00;61571.91;5076498;28;20059;-73
2021/11/03 06:05:34;;;;;;;1.90;0.40;;;;;;;5.69;100.00;61571.75;5095771;28;20066;-72
2021/11/03 06:08:05;;;;;;;1.35;0.47;;;;;;;5.69;100.00;61571.22;5075876;28;20077;-72
2021/11/03 06:10:38;;;;;;;3.95;0.40;;;;;;;5.69;100.00;61571.09;5091623;28;20048;-72
2021/11/03 06:13:06;;;;;;;3.63;0.60;;;;;;;5.69;100.00;61571.09;5089736;28;20514;-71
2021/11/03 06:15:36;;;;;;;3.72;0.77;;;;;;;5.68;100.00;61570.56;5075244;28;20139;-72
2021/11/03 06:18:04;;;;;;;1.55;0.57;;;;;;;5.68;100.00;61570.16;5077213;28;20075;-72
2021/11/03 06:20:32;;;;;;;5.93;0.50;;;;;;;5.67;100.00;61569.88;5093416;28;20075;-72
2021/11/03 06:22:59;;;;;;;1.15;0.43;;;;;;;5.67;100.00;61569.63;5076735;28;20105;-72
2021/11/03 06:25:27;;;;;;;2.05;0.50;;;;;;;5.67;100.00;61569.47;5073849;28;20135;-72
2021/11/03 06:27:56;;;;;;;1.55;0.50;;;;;;;5.68;100.00;61570.09;5058511;28;20131;-72
2021/11/03 06:30:27;;;;;;;2.30;0.60;;;;;;;5.69;100.00;61571.22;5090148;28;20063;-72
2021/11/03 06:32:55;;;;;;;2.03;0.95;;;;;;;5.70;100.00;61572.84;5093528;28;20048;-72
2021/11/03 06:35:23;;;;;;;4.25;0.63;;;;;;;5.72;100.00;61574.78;5083701;28;20050;-72
2021/11/03 06:37:51;;;;;;;2.60;0.90;;;;;;;5.73;100.00;61576.16;5072664;28;20128;-72
2021/11/03 06:40:20;;;;;;;7.75;0.77;;;;;;;5.74;100.00;61577.50;5100988;28;20040;-72
2021/11/03 06:42:47;;;;;;;4.75;1.45;;;;;;;5.76;100.00;61579.16;5076239;28;20083;-73
2021/11/03 06:45:17;;;;;;;36.78;17.63;;;;;;;5.77;100.00;61580.50;5095376;28;20052;-72
2021/11/03 06:47:46;;;;;;;13.15;5.07;;;;;;;5.78;100.00;61581.06;5060960;28;20044;-72
2021/11/03 06:50:17;;;;;;;8.50;2.38;;;;;;;5.79;100.00;61582.53;5056456;28;20091;-72
2021/11/03 06:52:45;;;;;;;1.88;0.82;;;;;;;5.80;100.00;61582.81;5067765;28;20067;-72
2021/11/03 06:55:14;;;;;;;7.25;1.48;;;;;;;5.80;100.00;61582.88;5102634;28;20109;-71
2021/11/03 06:57:41;;;;;;;9.52;2.83;;;;;;;5.80;100.00;61583.13;5082239;28;20150;-72
2021/11/03 07:00:12;;;;;;;15.82;6.72;;;;;;;5.80;100.00;61583.28;5096923;28;20122;-72
2021/11/03 07:02:40;;;;;;;10.95;4.28;;;;;;;5.81;100.00;61584.00;5072839;28;20052;-72
2021/11/03 07:05:08;;;;;;;11.55;3.60;;;;;;;5.81;100.00;61584.16;5093486;28;20076;-72
2021/11/03 07:07:35;;;;;;;35.30;14.10;;;;;;;5.81;100.00;61584.19;5071697;28;20045;-72
2021/11/03 07:10:05;;;;;;;16.80;8.80;;;;;;;5.80;100.00;61583.56;5080934;28;20047;-72
2021/11/03 07:12:32;;;;;;;6.93;2.70;;;;;;;5.79;100.00;61583.19;5079259;28;20079;-72
2021/11/03 07:15:00;;;;;;;8.40;3.55;;;;;;;5.80;100.00;61583.44;5086643;28;20071;-72
2021/11/03 07:17:27;;;;;;;4.78;2.00;;;;;;;5.80;100.00;61583.59;5086326;28;20127;-72
2021/11/03 07:19:54;;;;;;;9.70;3.42;;;;;;;5.80;100.00;61583.97;5084340;28;20228;-73
2021/11/03 07:22:22;;;;;;;21.13;10.02;;;;;;;5.80;100.00;61583.88;5104486;28;20155;-73
2021/11/03 07:24:49;;;;;;;9.50;4.60;;;;;;;5.80;100.00;61584.47;5095578;28;20500;-73
2021/11/03 07:27:16;;;;;;;8.95;3.83;;;;;;;5.80;100.00;61584.56;5095473;28;20050;-71
2021/11/03 07:29:43;;;;;;;4.90;1.75;;;;;;;5.81;100.00;61585.38;5091456;28;20079;-72
2021/11/03 07:32:11;;;;;;;6.30;2.83;;;;;;;5.82;100.00;61586.75;5083173;28;20238;-72
2021/11/03 07:34:38;;;;;;;4.82;1.85;;;;;;;5.83;100.00;61587.88;5089644;28;20150;-72
2021/11/03 07:37:06;;;;;;;5.47;1.40;;;;;;;5.84;100.00;61589.41;5091908;28;20048;-72
2021/11/03 07:39:34;;;;;;;2.72;1.45;;;;;;;5.85;100.00;61589.63;5073260;28;20066;-72
2021/11/03 07:42:02;;;;;;;5.03;2.00;;;;;;;5.85;100.00;61589.75;5087915;28;20094;-72
2021/11/03 07:44:29;;;;;;;3.58;1.67;;;;;;;5.86;100.00;61591.00;5101520;28;20466;-73
2021/11/03 07:46:56;;;;;;;2.55;1.60;;;;;;;5.87;100.00;61591.53;5102766;28;20051;-73
2021/11/03 07:49:24;;;;;;;2.25;1.15;;;;;;;5.89;100.00;61593.63;5095075;28;20151;-72
2021/11/03 07:51:51;;;;;;;2.83;1.33;;;;;;;5.91;100.00;61595.59;5091320;28;20079;-72
2021/11/03 07:54:19;;;;;;;2.78;1.10;;;;;;;5.93;100.00;61597.47;5073059;28;20050;-72
2021/11/03 07:56:47;;;;;;;4.30;1.25;;;;;;;5.95;100.00;61599.78;5095904;28;20514;-72
2021/11/03 07:59:16;;;;;;;2.80;1.55;;;;;;;5.96;100.00;61600.84;5091943;28;20140;-72
2021/11/03 08:01:43;;;;;;;3.20;1.60;;;;;;;5.97;100.00;61601.38;5083972;28;20466;-72
2021/11/03 08:04:11;;;;;;;3.60;1.70;;;;;;;5.97;100.00;61602.38;5084985;28;20075;-73
2021/11/03 08:06:39;;;;;;;2.85;1.42;;;;;;;6.00;100.00;61604.53;5088692;28;20123;-72
2021/11/03 08:09:08;;;;;;;4.72;1.73;;;;;;;6.01;100.00;61606.59;5076052;28;20117;-72
2021/11/03 08:11:51;;;;;;;4.35;2.08;;;;;;;6.03;100.00;61608.66;5088208;28;20102;-72
2021/11/03 08:14:21;;;;;;;2.75;1.60;;;;;;;6.05;100.00;61610.91;5074680;28;20086;-73
2021/11/03 08:17:01;;;;;;;3.80;1.85;;;;;;;6.07;100.00;61613.19;5093617;28;20131;-72
2021/11/03 08:19:38;;;;;;;3.88;1.95;;;;;;;6.08;100.00;61614.09;5089710;28;20131;-72
2021/11/03 08:22:06;;;;;;;3.15;1.58;;;;;;;6.11;100.00;61616.06;5095244;28;20402;-72
2021/11/03 08:24:34;;;;;;;4.57;1.98;;;;;;;6.12;100.00;61618.00;5077544;28;20406;-71
2021/11/03 08:27:01;;;;;;;4.03;1.33;;;;;;;6.14;100.00;61619.53;5088794;28;20608;-71
2021/11/03 08:29:38;;;;;;;5.05;1.63;;;;;;;6.15;100.00;61620.38;5088441;28;20044;-72
2021/11/03 08:32:07;;;;;;;4.57;2.28;;;;;;;6.16;100.00;61621.75;5090550;28;20076;-72
2021/11/03 08:34:36;;;;;;;9.45;3.10;;;;;;;6.17;100.00;61622.84;5091808;28;20584;-72
2021/11/03 08:37:14;;;;;;;3.55;1.58;;;;;;;6.18;100.00;61624.22;5056772;28;20577;-71
2021/11/03 08:39:44;;;;;;;2.38;1.10;;;;;;;6.19;100.00;61624.88;5083472;28;20139;-72
2021/11/03 08:42:12;;;;;;;3.10;1.70;;;;;;;6.20;100.00;61625.84;5074857;28;20079;-72
2021/11/03 08:44:40;;;;;;;4.57;1.85;;;;;;;6.21;100.00;61627.09;5071776;28;20138;-72
2021/11/03 08:47:11;;;;;;;5.28;2.33;;;;;;;6.22;100.00;61627.91;5090518;28;20078;-72
2021/11/03 08:49:39;;;;;;;4.93;2.80;;;;;;;6.23;100.00;61629.13;5070499;28;20285;-72
2021/11/03 08:52:07;;;;;;;3.83;1.77;;;;;;;6.24;100.00;61630.47;5069680;28;20055;-72
2021/11/03 08:54:39;;;;;;;3.33;1.67;;;;;;;6.26;100.00;61632.44;5085780;28;20131;-72
2021/11/03 08:57:21;;;;;;;4.60;2.00;;;;;;;6.28;100.00;61634.34;5088027;28;20051;-71
2021/11/03 08:59:53;;;;;;;;;;;;;;;6.30;100.00;61636.09;5083086;28;20273;-72
2021/11/03 09:02:25;;;;;;;2.38;1.25;;;;;;;6.31;100.00;61637.44;5071786;28;19966;-71
2021/11/03 09:04:56;;;;;;;2.75;1.20;;;;;;;6.32;100.00;61639.41;5064629;28;20060;-72
2021/11/03 09:07:23;;;;;;;4.05;1.40;;;;;;;6.34;100.00;61641.19;5087572;28;20327;-72
2021/11/03 09:09:50;;;;;;;3.95;1.58;;;;;;;6.35;100.00;61642.66;5082575;28;20083;-72
2021/11/03 09:12:18;;;;;;;4.22;1.58;;;;;;;6.37;100.00;61644.13;5068495;28;20611;-72
2021/11/03 09:14:46;;;;;;;3.70;1.33;;;;;;;6.39;100.00;61646.16;5087333;28;20075;-72
2021/11/03 09:17:14;;;;;;;3.45;1.55;;;;;;;6.41;100.00;61648.13;5070985;28;20052;-72
2021/11/03 09:19:42;;;;;;;5.70;2.65;;;;;;;6.43;100.00;61649.47;5070991;28;20070;-72
2021/11/03 09:22:09;;;;;;;2.80;1.40;;;;;;;6.45;100.00;61651.66;5068330;28;20082;-72
2021/11/03 09:24:37;;;;;;;4.13;1.23;;;;;;;6.47;100.00;61654.28;5076930;28;20103;-71
2021/11/03 09:27:12;;;;;;;2.30;0.90;;;;;;;6.49;100.00;61656.63;5089347;28;20575;-72
2021/11/03 09:29:41;;;;;;;3.13;1.08;;;;;;;6.51;100.00;61658.63;5072401;28;20058;-73
2021/11/03 09:32:12;;;;;;;2.88;1.38;;;;;;;6.54;100.00;61662.06;5088258;28;20486;-73
2021/11/03 09:34:42;;;;;;;3.30;1.05;;;;;;;6.57;100.00;61665.34;5088829;28;20126;-73
2021/11/03 09:37:10;;;;;;;3.17;1.05;;;;;;;6.62;100.00;61669.66;5083117;28;20079;-72
2021/11/03 09:39:39;;;;;;;2.65;0.90;;;;;;;6.67;100.00;61674.94;5073489;28;20278;-73
2021/11/03 09:42:09;;;;;;;2.28;0.90;;;;;;;6.72;100.00;61680.22;5089654;28;20183;-72
2021/11/03 09:44:37;;;;;;;1.67;0.80;;;;;;;6.77;100.00;61685.25;5070088;28;20108;-72
2021/11/03 09:47:26;;;;;;;2.17;0.73;;;;;;;6.82;100.00;61690.22;5088508;28;20078;-73
2021/11/03 09:50:18;;;;;;;1.95;0.80;;;;;;;6.87;100.00;61695.78;5063573;28;20155;-71
2021/11/03 09:52:52;;;;;;;1.92;0.70;;;;;;;6.92;100.00;61700.31;5069830;28;20073;-73
2021/11/03 09:55:47;;;;;;;1.13;0.65;;;;;;;6.97;100.00;61705.66;5052567;28;20052;-73
2021/11/03 09:58:43;;;;;;;1.67;0.70;;;;;;;7.01;100.00;61710.25;5078338;28;20131;-73
2021/11/03 10:01:36;;;;;;;1.60;0.80;;;;;;;7.06;99.99;61714.81;5065376;28;20126;-73
2021/11/03 10:04:41;;;;;;;1.38;0.68;;;;;;;7.11;100.00;61720.53;5086618;28;20080;-73
2021/11/03 10:07:16;;;;;;;2.58;0.70;;;;;;;7.16;99.50;61724.75;5066431;28;20072;-72
2021/11/03 10:09:44;;;;;;;1.40;0.70;;;;;;;7.21;100.00;61730.22;5067560;28;20109;-72
2021/11/03 10:12:14;;;;;;;1.70;0.70;;;;;;;7.25;99.57;61734.81;5065831;28;20570;-73
2021/11/03 10:14:43;;;;;;;2.50;0.70;;;;;;;7.30;100.00;61739.81;5066425;28;20095;-72
2021/11/03 10:17:31;;;;;;;2.85;0.77;;;;;;;7.35;99.29;61744.56;5085198;28;20075;-72
2021/11/03 10:19:58;;;;;;;2.13;0.70;;;;;;;7.38;99.09;61748.06;5079157;28;20682;-72
2021/11/03 10:22:37;;;;;;;1.40;0.60;;;;;;;7.41;98.66;61750.78;5062724;28;20102;-72
2021/11/03 10:25:25;;;;;;;1.83;0.60;;;;;;;7.44;99.67;61753.91;5059305;28;20079;-71
2021/11/03 10:27:57;;;;;;;1.15;0.73;;;;;;;7.47;99.63;61756.47;5061604;28;20125;-72
2021/11/03 10:30:48;;;;;;;3.38;1.10;;;;;;;7.49;99.65;61759.03;5062384;28;20131;-71
2021/11/03 10:33:21;;;;;;;1.88;0.75;;;;;;;7.50;99.36;61760.28;5079165;28;20072;-72
2021/11/03 10:36:00;;;;;;;1.58;0.60;;;;;;;7.53;99.38;61763.25;5072106;28;20068;-72
2021/11/03 10:38:40;;;;;;;3.13;0.80;;;;;;;7.56;99.05;61765.97;5065953;28;20056;-72
2021/11/03 10:41:19;;;;;;;1.45;0.73;;;;;;;7.57;98.80;61767.44;5087485;28;20048;-72
2021/11/03 10:44:08;;;;;;;2.90;1.15;;;;;;;7.59;98.69;61769.50;5072517;28;20067;-71
2021/11/03 10:47:10;;;;;;;2.83;0.80;;;;;;;7.61;99.29;61771.53;5087217;28;20060;-72
2021/11/03 10:49:50;;;;;;;2.47;0.90;;;;;;;7.62;98.69;61772.63;5080996;28;20079;-72
2021/11/03 10:52:33;;;;;;;3.33;0.60;;;;;;;7.62;98.18;61773.22;5067681;28;20087;-72
2021/11/03 10:55:21;;;;;;;1.45;0.50;;;;;;;7.63;97.26;61773.66;5087830;28;20086;-73
2021/11/03 10:58:17;;;;;;;1.83;0.50;;;;;;;7.64;98.34;61775.03;5070460;28;20106;-72
2021/11/03 11:01:08;;;;;;;1.42;0.50;;;;;;;7.64;97.71;61775.41;5074914;28;20493;-71
2021/11/03 11:04:11;;;;;;;0.70;0.40;;;;;;;7.63;97.07;61774.19;5071673;28;20048;-72
2021/11/03 11:07:28;;;;;;;1.27;0.40;;;;;;;7.63;97.74;61773.88;5083578;28;20072;-72
2021/11/03 11:10:17;;;;;;;4.07;0.90;;;;;;;7.62;98.62;61772.84;5073815;28;20508;-72
2021/11/03 11:12:47;;;;;;;4.90;2.35;;;;;;;7.61;98.94;61771.31;5088780;28;20234;-72
2021/11/03 11:15:14;;;;;;;2.85;1.70;;;;;;;7.60;99.22;61770.34;5068098;28;20401;-71
2021/11/03 11:17:56;;;;;;;3.67;0.80;;;;;;;7.60;99.43;61770.50;5085246;28;20127;-72
2021/11/03 11:20:43;;;;;;;3.97;0.70;;;;;;;7.61;98.88;61772.00;5087383;28;20195;-72
2021/11/03 11:23:20;;;;;;;2.38;0.50;;;;;;;7.61;98.68;61771.84;5070998;28;20134;-72
2021/11/03 11:26:30;;;;;;;6.43;2.25;;;;;;;7.61;98.75;61771.84;5073693;28;20466;-72
2021/11/03 11:29:11;;;;;;;3.08;0.75;;;;;;;7.62;98.84;61772.22;5090201;28;20463;-71
2021/11/03 11:31:46;;;;;;;2.35;0.40;;;;;;;7.61;97.74;61772.28;5088700;28;20047;-72
2021/11/03 11:34:22;;;;;;;5.95;0.60;;;;;;;7.61;98.19;61772.16;5087420;28;20147;-72
2021/11/03 11:37:17;;;;;;;5.68;0.75;;;;;;;7.62;98.40;61773.53;5090688;28;20123;-72
2021/11/03 11:39:56;;;;;;;2.17;0.80;;;;;;;7.63;98.48;61774.25;5089629;28;20078;-70
2021/11/03 11:42:44;;;;;;;1.98;0.60;;;;;;;7.65;97.92;61775.84;5072110;28;20121;-71
2021/11/03 11:45:25;;;;;;;1.85;0.70;;;;;;;7.66;97.60;61777.47;5063555;28;20097;-72
2021/11/03 11:48:22;;;;;;;1.88;0.55;;;;;;;7.67;96.49;61778.25;5091285;28;20044;-71
2021/11/03 11:50:56;;;;;;;1.77;0.70;;;;;;;7.67;97.23;61778.56;5085186;28;20344;-72
2021/11/03 11:53:23;;;;;;;2.50;0.80;;;;;;;7.69;97.92;61780.03;5071542;28;20130;-72
2021/11/03 11:56:20;;;;;;;1.70;0.70;;;;;;;7.71;97.71;61781.78;5088384;28;20558;-72